Time;durP1;ratioP1;P1;durP2;ratioP2;P2;SDS_P1;SDS_P2;PMS_P1;PMS_P2;Temp;Humidity;BMP_temperature;BMP_pressure;BME280_temperature;BME280_humidity;BME280_pressure;Samples;Min_cycle;Max_cycle;Signal;HPM_P1;HPM_P2
2023/07/16 00:01:58;;;;;;;25.67;9.10;;;;;;;23.96;67.10;96045.59;5035035;28;20202;-74
2023/07/16 00:04:23;;;;;;;9.50;7.03;;;;;;;24.05;66.48;96050.00;5029356;28;20789;-74
2023/07/16 00:06:49;;;;;;;8.80;7.10;;;;;;;23.83;67.63;96047.84;5029472;28;20176;-74
2023/07/16 00:09:14;;;;;;;9.33;8.10;;;;;;;23.84;67.57;96050.38;5028684;28;20238;-74
2023/07/16 00:11:39;;;;;;;20.00;8.33;;;;;;;23.76;68.30;96061.03;5029530;28;20274;-73
2023/07/16 00:14:05;;;;;;;15.23;7.83;;;;;;;23.85;67.37;96067.28;5021771;28;20655;-74
2023/07/16 00:16:31;;;;;;;8.10;7.20;;;;;;;23.79;67.92;96075.97;4990791;28;20200;-74
2023/07/16 00:18:56;;;;;;;9.30;7.17;;;;;;;23.83;68.20;96063.94;4990519;28;20184;-74
2023/07/16 00:21:22;;;;;;;16.87;8.37;;;;;;;23.74;68.08;96057.69;5008763;28;20259;-74
2023/07/16 00:23:47;;;;;;;10.57;7.70;;;;;;;23.65;68.28;96042.53;5008472;28;20984;-74
2023/07/16 00:26:13;;;;;;;13.43;7.10;;;;;;;23.72;68.20;96042.72;4997241;28;20548;-73
2023/07/16 00:28:39;;;;;;;9.50;7.80;;;;;;;23.78;68.72;96068.94;5028757;28;20574;-73
2023/07/16 00:31:04;;;;;;;8.10;7.07;;;;;;;23.85;68.44;96064.63;5028808;28;20497;-72
2023/07/16 00:33:30;;;;;;;8.73;7.63;;;;;;;23.72;68.63;96078.41;5029095;28;20215;-75
2023/07/16 00:35:55;;;;;;;9.13;7.20;;;;;;;23.66;69.07;96079.03;5028874;28;20250;-74
2023/07/16 00:38:21;;;;;;;9.13;7.63;;;;;;;23.72;68.65;96074.88;5031605;28;20280;-73
2023/07/16 00:40:47;;;;;;;14.00;7.37;;;;;;;23.70;68.99;96088.44;5029019;28;20191;-73
2023/07/16 00:43:12;;;;;;;20.53;8.90;;;;;;;23.69;69.31;96094.78;5028673;28;20210;-73
2023/07/16 00:45:39;;;;;;;9.07;8.13;;;;;;;23.67;68.57;96105.66;5029423;28;20582;-74
2023/07/16 00:48:07;;;;;;;12.10;8.83;;;;;;;23.65;68.84;96113.03;5039366;28;20178;-74
2023/07/16 00:50:34;;;;;;;10.40;8.03;;;;;;;23.66;69.05;96113.84;5046647;28;20748;-73
2023/07/16 00:53:01;;;;;;;8.77;7.97;;;;;;;23.75;67.89;96106.75;5047531;28;20437;-74
2023/07/16 00:55:29;;;;;;;13.80;7.30;;;;;;;23.60;69.21;96107.28;5047323;28;20456;-74
2023/07/16 00:57:57;;;;;;;11.97;8.17;;;;;;;23.53;69.33;96106.22;5028733;28;20540;-74
2023/07/16 01:00:22;;;;;;;17.40;8.60;;;;;;;23.48;69.64;96115.69;5047229;28;20418;-75
2023/07/16 01:02:48;;;;;;;11.53;7.33;;;;;;;23.57;69.06;96115.63;5039862;28;20484;-73
2023/07/16 01:05:13;;;;;;;8.10;6.77;;;;;;;23.53;69.43;96127.66;5027350;28;20178;-74
2023/07/16 01:07:48;;;;;;;10.93;7.17;;;;;;;23.61;69.31;96138.44;5027336;28;20179;-74
2023/07/16 01:10:13;;;;;;;12.03;8.17;;;;;;;23.39;70.20;96155.81;5026835;28;20241;-75
2023/07/16 01:12:39;;;;;;;10.60;9.10;;;;;;;23.57;69.63;96161.16;5010326;28;20443;-74
2023/07/16 01:15:05;;;;;;;8.73;7.93;;;;;;;23.62;69.82;96172.28;5011041;28;20282;-74
2023/07/16 01:17:30;;;;;;;10.77;7.20;;;;;;;23.68;69.05;96182.34;5027871;28;20612;-74
2023/07/16 01:19:56;;;;;;;9.03;6.07;;;;;;;23.68;68.60;96194.91;5026761;28;20421;-74
2023/07/16 01:22:48;;;;;;;13.43;5.67;;;;;;;23.48;69.02;96171.94;5026705;28;20188;-74
2023/07/16 01:25:48;;;;;;;7.90;4.93;;;;;;;23.51;67.77;96169.81;5027287;28;20659;-74
2023/07/16 01:28:32;;;;;;;5.83;4.20;;;;;;;23.54;67.23;96168.66;4998740;28;20424;-74
2023/07/16 01:30:59;;;;;;;5.97;4.67;;;;;;;23.57;67.24;96166.50;5006770;28;20514;-73
2023/07/16 01:33:25;;;;;;;10.97;4.73;;;;;;;23.51;67.14;96182.38;5007218;28;20435;-75
2023/07/16 01:35:51;;;;;;;7.53;3.20;;;;;;;23.37;67.28;96170.34;5006695;28;21074;-75
2023/07/16 01:38:18;;;;;;;8.17;3.60;;;;;;;23.52;66.31;96167.97;5006777;28;20485;-75
2023/07/16 01:40:44;;;;;;;4.93;2.70;;;;;;;23.40;66.27;96178.91;5007507;28;20498;-75
2023/07/16 01:43:09;;;;;;;3.73;2.17;;;;;;;23.39;65.60;96187.94;5006982;28;20584;-75
2023/07/16 01:45:36;;;;;;;2.63;1.80;;;;;;;23.16;67.52;96178.66;5008115;28;20194;-75
2023/07/16 01:48:30;;;;;;;2.73;2.13;;;;;;;23.27;67.15;96177.59;5028097;28;20270;-75
2023/07/16 01:50:56;;;;;;;4.90;2.80;;;;;;;23.39;66.05;96181.75;5046002;28;20410;-74
2023/07/16 01:53:21;;;;;;;4.53;1.40;;;;;;;22.77;67.34;96179.69;5028762;28;20436;-74
2023/07/16 01:55:46;;;;;;;11.33;2.60;;;;;;;22.90;67.93;96167.81;5045856;28;20237;-74
2023/07/16 01:58:12;;;;;;;6.13;2.07;;;;;;;23.15;67.74;96168.94;5046096;28;20559;-74
2023/07/16 02:00:38;;;;;;;5.07;2.27;;;;;;;23.15;65.20;96168.94;5046318;28;20186;-75
2023/07/16 02:03:03;;;;;;;3.77;2.10;;;;;;;23.27;66.42;96162.41;5027998;28;20947;-74
2023/07/16 02:05:29;;;;;;;5.97;2.33;;;;;;;23.00;66.11;96152.56;5007101;28;20419;-74
2023/07/16 02:07:54;;;;;;;4.90;2.00;;;;;;;23.08;65.03;96154.47;5006549;28;20176;-74
2023/07/16 02:10:20;;;;;;;7.50;2.50;;;;;;;23.14;63.29;96135.13;5006251;28;20257;-74
2023/07/16 02:12:46;;;;;;;2.43;2.07;;;;;;;23.13;63.42;96130.78;4989499;28;20347;-74
2023/07/16 02:15:11;;;;;;;2.27;1.90;;;;;;;23.12;63.13;96123.75;5009523;28;20607;-74
2023/07/16 02:17:36;;;;;;;4.53;1.97;;;;;;;23.08;63.21;96130.38;5026345;28;20183;-74
2023/07/16 02:20:05;;;;;;;11.53;3.50;;;;;;;23.16;63.34;96131.31;5024762;28;20619;-73
2023/07/16 02:22:31;;;;;;;5.50;2.10;;;;;;;23.02;63.78;96123.81;5024738;28;20277;-74
2023/07/16 02:24:56;;;;;;;8.13;2.23;;;;;;;22.99;62.84;96110.75;5025268;28;21088;-74
2023/07/16 02:27:22;;;;;;;3.07;2.10;;;;;;;22.95;61.68;96136.06;5026217;28;20195;-74
2023/07/16 02:29:47;;;;;;;4.47;2.00;;;;;;;22.99;60.38;96141.00;5017464;28;20932;-74
2023/07/16 02:32:13;;;;;;;4.07;2.20;;;;;;;22.97;60.11;96152.84;5006630;28;20290;-74
2023/07/16 02:34:38;;;;;;;5.43;2.30;;;;;;;22.92;58.83;96158.63;5006112;28;20183;-74
2023/07/16 02:37:03;;;;;;;2.10;1.60;;;;;;;22.86;59.87;96177.09;5006328;28;20261;-74
2023/07/16 02:39:29;;;;;;;2.80;1.80;;;;;;;22.79;59.28;96192.91;5005544;28;20176;-75
2023/07/16 02:41:54;;;;;;;2.50;2.10;;;;;;;22.75;60.00;96194.22;5014469;28;20649;-74
2023/07/16 02:44:19;;;;;;;7.43;2.70;;;;;;;22.70;61.19;96193.78;5026572;28;20179;-74
2023/07/16 02:46:45;;;;;;;3.97;2.23;;;;;;;22.81;62.02;96194.44;5026299;28;20172;-75
2023/07/16 02:49:10;;;;;;;3.60;2.10;;;;;;;22.78;61.79;96183.22;5045882;28;20175;-74
2023/07/16 02:51:36;;;;;;;4.40;2.40;;;;;;;22.86;62.13;96172.59;5046277;28;20178;-75
2023/07/16 02:54:03;;;;;;;9.00;2.77;;;;;;;22.75;62.18;96173.66;5045667;28;20688;-74
2023/07/16 02:56:28;;;;;;;10.33;3.10;;;;;;;22.81;61.37;96193.59;5045787;28;20210;-75
2023/07/16 02:58:53;;;;;;;17.53;2.77;;;;;;;22.80;61.14;96208.00;5045695;28;21024;-74
2023/07/16 03:01:19;;;;;;;5.20;2.00;;;;;;;22.59;60.72;96206.38;5046123;28;20193;-73
2023/07/16 03:03:45;;;;;;;7.70;2.33;;;;;;;22.48;60.19;96224.44;5027489;28;20195;-74
2023/07/16 03:06:10;;;;;;;11.40;2.23;;;;;;;22.50;60.44;96225.13;5045303;28;20163;-74
2023/07/16 03:08:36;;;;;;;2.13;1.80;;;;;;;22.45;59.83;96225.56;5045620;28;20281;-74
2023/07/16 03:11:01;;;;;;;8.93;1.90;;;;;;;22.41;60.90;96225.00;5045395;28;20203;-75
2023/07/16 03:13:26;;;;;;;14.43;2.60;;;;;;;22.45;59.23;96232.75;5045079;28;20191;-74
2023/07/16 03:15:52;;;;;;;14.40;3.17;;;;;;;22.48;58.66;96241.31;5045629;28;20280;-74
2023/07/16 03:18:20;;;;;;;5.40;1.83;;;;;;;22.42;58.95;96247.25;5038926;28;20179;-73
2023/07/16 03:20:46;;;;;;;9.03;2.20;;;;;;;22.48;58.53;96235.97;5025375;28;20179;-74
2023/07/16 03:23:11;;;;;;;4.53;2.07;;;;;;;22.48;59.12;96238.63;5025445;28;20430;-74
2023/07/16 03:25:37;;;;;;;6.00;1.97;;;;;;;22.48;59.15;96260.03;5025988;28;20730;-73
2023/07/16 03:28:02;;;;;;;12.33;2.23;;;;;;;22.40;59.39;96268.78;5025684;28;20205;-75
2023/07/16 03:30:29;;;;;;;11.10;2.63;;;;;;;22.26;59.85;96274.56;5025381;28;20183;-74
2023/07/16 03:32:55;;;;;;;15.27;2.77;;;;;;;22.46;60.07;96294.09;5028365;28;20195;-75
2023/07/16 03:35:20;;;;;;;4.70;2.30;;;;;;;22.41;60.05;96289.16;5029019;28;20473;-74
2023/07/16 03:37:46;;;;;;;11.97;3.30;;;;;;;22.42;59.98;96276.66;5029152;28;20198;-75
2023/07/16 03:40:21;;;;;;;6.93;2.30;;;;;;;22.33;61.54;96278.38;5028829;28;20254;-77
2023/07/16 03:42:47;;;;;;;16.93;3.50;;;;;;;22.27;61.88;96264.72;5029260;28;20708;-75
2023/07/16 03:45:13;;;;;;;24.40;3.77;;;;;;;22.26;61.65;96279.09;5029820;28;20418;-75
2023/07/16 03:47:39;;;;;;;10.80;2.77;;;;;;;22.35;61.75;96270.22;5036427;28;20183;-75
2023/07/16 03:50:05;;;;;;;13.63;3.23;;;;;;;22.25;61.86;96261.34;5048029;28;20422;-75
2023/07/16 03:52:30;;;;;;;12.93;3.23;;;;;;;22.35;61.64;96262.19;5048650;28;20206;-74
2023/07/16 03:54:56;;;;;;;10.30;2.90;;;;;;;22.35;61.56;96267.53;5030343;28;20993;-75
2023/07/16 03:57:21;;;;;;;2.63;1.90;;;;;;;22.33;62.10;96273.00;5048609;28;20175;-75
2023/07/16 03:59:46;;;;;;;4.30;2.23;;;;;;;22.42;62.31;96274.00;5048535;28;20304;-75
2023/07/16 04:02:12;;;;;;;4.37;2.20;;;;;;;22.26;62.11;96279.09;5030484;28;20560;-74
2023/07/16 04:04:37;;;;;;;3.83;2.00;;;;;;;22.46;61.13;96296.75;5028279;28;20210;-75
2023/07/16 04:07:03;;;;;;;7.00;2.63;;;;;;;22.37;61.16;96294.94;5028118;28;20784;-74
2023/07/16 04:09:28;;;;;;;2.83;2.13;;;;;;;22.16;62.15;96305.78;5027968;28;20283;-75
2023/07/16 04:11:53;;;;;;;15.10;3.77;;;;;;;22.14;62.82;96295.22;5027898;28;20207;-74
2023/07/16 04:14:19;;;;;;;11.93;2.67;;;;;;;22.27;63.04;96275.41;5010109;28;20219;-75
2023/07/16 04:16:44;;;;;;;11.70;3.10;;;;;;;22.39;62.49;96295.66;5028558;28;20207;-75
2023/07/16 04:19:10;;;;;;;16.87;2.77;;;;;;;22.45;61.94;96292.41;5013880;28;20180;-74
2023/07/16 04:21:35;;;;;;;8.70;2.20;;;;;;;22.61;61.36;96281.13;4990306;28;20186;-75
2023/07/16 04:24:05;;;;;;;15.03;3.40;;;;;;;22.16;61.43;96282.56;5007634;28;20196;-74
2023/07/16 04:26:30;;;;;;;7.10;2.43;;;;;;;21.93;63.22;96287.34;5007938;28;20246;-73
2023/07/16 04:28:56;;;;;;;50.93;5.80;;;;;;;22.18;62.79;96307.34;5015467;28;20426;-73
2023/07/16 04:31:24;;;;;;;11.80;2.60;;;;;;;22.29;62.23;96322.41;5027483;28;20641;-75
2023/07/16 04:33:50;;;;;;;15.37;2.90;;;;;;;22.42;62.22;96322.13;5027490;28;20198;-74
2023/07/16 04:36:15;;;;;;;3.50;2.40;;;;;;;22.26;62.69;96311.16;5027521;28;20457;-74
2023/07/16 04:38:42;;;;;;;2.97;1.93;;;;;;;22.35;62.14;96315.66;5028032;28;20628;-74
2023/07/16 04:41:07;;;;;;;10.90;2.87;;;;;;;22.26;62.65;96321.84;5025051;28;20192;-74
2023/07/16 04:43:33;;;;;;;16.07;2.97;;;;;;;22.37;61.39;96316.34;5008094;28;20541;-75
2023/07/16 04:45:58;;;;;;;11.73;3.27;;;;;;;22.36;62.05;96299.44;5017795;28;20171;-74
2023/07/16 04:48:25;;;;;;;14.80;2.90;;;;;;;22.31;63.09;96303.56;5041295;28;20913;-71
2023/07/16 04:50:52;;;;;;;18.67;3.80;;;;;;;22.49;61.97;96309.88;5046823;28;20257;-70
2023/07/16 04:53:18;;;;;;;13.40;3.00;;;;;;;22.58;61.33;96311.69;5047402;28;20441;-71
2023/07/16 04:55:44;;;;;;;18.10;3.20;;;;;;;22.54;60.77;96309.44;5046974;28;20449;-71
2023/07/16 04:58:11;;;;;;;100.13;10.33;;;;;;;22.56;60.60;96305.63;5037950;28;20495;-71
2023/07/16 05:00:37;;;;;;;20.20;3.93;;;;;;;22.57;61.00;96309.13;5028055;28;20179;-70
2023/07/16 05:03:02;;;;;;;26.60;4.07;;;;;;;22.48;60.38;96323.38;5028276;28;20525;-71
2023/07/16 05:05:28;;;;;;;5.37;2.87;;;;;;;22.66;61.03;96324.34;5027913;28;20255;-70
2023/07/16 05:07:54;;;;;;;3.10;2.33;;;;;;;22.70;60.93;96328.41;5026069;28;20660;-74
2023/07/16 05:10:19;;;;;;;4.47;2.47;;;;;;;22.71;60.99;96346.13;5027514;28;20204;-71
2023/07/16 05:12:44;;;;;;;7.63;2.10;;;;;;;22.74;60.51;96347.69;5027849;28;20198;-71
2023/07/16 05:15:10;;;;;;;40.13;6.40;;;;;;;22.56;60.43;96351.09;5029939;28;20195;-72
2023/07/16 05:17:35;;;;;;;22.53;3.37;;;;;;;22.68;60.53;96358.94;5027736;28;20186;-71
2023/07/16 05:20:01;;;;;;;17.20;3.00;;;;;;;22.70;60.77;96355.16;5026125;28;20164;-68
2023/07/16 05:22:26;;;;;;;6.17;2.40;;;;;;;22.70;61.18;96354.28;5026608;28;20203;-71
2023/07/16 05:24:52;;;;;;;8.47;2.30;;;;;;;22.47;62.02;96359.13;5026181;28;20258;-70
2023/07/16 05:27:17;;;;;;;8.10;2.93;;;;;;;22.35;62.44;96335.22;5026420;28;20168;-71
2023/07/16 05:29:42;;;;;;;10.83;3.47;;;;;;;22.01;63.87;96349.94;5026464;28;20185;-70
2023/07/16 05:32:09;;;;;;;7.37;3.00;;;;;;;21.49;66.13;96353.63;5026678;28;20605;-71
2023/07/16 05:34:34;;;;;;;5.67;2.70;;;;;;;21.42;66.88;96355.16;5018546;28;20665;-72
2023/07/16 05:36:59;;;;;;;10.03;2.27;;;;;;;21.52;66.63;96357.84;5006864;28;20451;-70
2023/07/16 05:39:25;;;;;;;10.50;2.83;;;;;;;21.94;65.24;96368.34;5006916;28;20179;-71
2023/07/16 05:41:50;;;;;;;5.93;2.87;;;;;;;22.10;64.32;96371.31;5007898;28;20537;-70
2023/07/16 05:44:16;;;;;;;4.70;2.43;;;;;;;22.09;64.11;96363.47;5022895;28;20317;-71
2023/07/16 05:46:41;;;;;;;6.10;2.10;;;;;;;21.92;64.24;96365.84;5007150;28;20172;-71
2023/07/16 05:49:07;;;;;;;8.20;2.80;;;;;;;21.97;64.15;96368.94;5035413;28;20530;-71
2023/07/16 05:51:32;;;;;;;20.23;3.90;;;;;;;22.03;64.46;96380.03;5026767;28;20167;-70
2023/07/16 05:53:58;;;;;;;15.50;3.60;;;;;;;21.93;64.78;96385.38;5025933;28;20563;-71
2023/07/16 05:56:23;;;;;;;6.70;2.50;;;;;;;21.75;65.09;96377.16;5025792;28;20234;-70
2023/07/16 05:58:48;;;;;;;3.23;1.93;;;;;;;21.81;65.01;96386.47;5025447;28;20272;-73
2023/07/16 06:01:14;;;;;;;2.83;2.00;;;;;;;21.80;65.00;96384.78;5016300;28;20191;-70
2023/07/16 06:03:39;;;;;;;4.60;2.27;;;;;;;21.81;64.73;96375.78;5006115;28;20242;-71
2023/07/16 06:06:05;;;;;;;13.67;3.40;;;;;;;21.66;65.22;96384.19;5010872;28;20171;-70
2023/07/16 06:08:30;;;;;;;13.97;3.10;;;;;;;21.61;66.10;96369.53;5025542;28;20203;-71
2023/07/16 06:10:55;;;;;;;3.40;2.00;;;;;;;21.66;65.49;96372.66;5022297;28;20855;-70
2023/07/16 06:13:21;;;;;;;4.13;1.90;;;;;;;21.60;65.59;96371.38;5025359;28;20593;-71
2023/07/16 06:15:47;;;;;;;2.53;1.80;;;;;;;21.69;65.12;96372.38;5023612;28;20645;-71
2023/07/16 06:18:13;;;;;;;8.90;2.20;;;;;;;21.54;65.75;96374.56;5024225;28;20630;-71
2023/07/16 06:20:38;;;;;;;5.37;2.07;;;;;;;21.43;66.40;96372.03;5023095;28;20525;-71
2023/07/16 06:23:04;;;;;;;3.13;2.47;;;;;;;21.64;65.59;96370.13;5024132;28;20209;-71
2023/07/16 06:25:29;;;;;;;5.50;2.40;;;;;;;21.64;64.92;96366.59;5025846;28;20167;-72
2023/07/16 06:27:55;;;;;;;6.83;2.80;;;;;;;21.59;64.57;96367.03;5025908;28;20219;-71
2023/07/16 06:30:20;;;;;;;8.57;2.60;;;;;;;21.54;64.26;96358.56;5016653;28;20961;-72
2023/07/16 06:32:46;;;;;;;6.90;2.87;;;;;;;21.63;63.36;96359.56;5012850;28;20241;-71
2023/07/16 06:35:11;;;;;;;6.73;2.13;;;;;;;21.52;64.04;96371.19;5025572;28;20273;-71
2023/07/16 06:37:36;;;;;;;13.77;3.00;;;;;;;21.57;63.21;96385.00;5023993;28;20314;-72
2023/07/16 06:40:03;;;;;;;10.73;2.70;;;;;;;21.69;64.17;96391.09;5023484;28;20218;-71
2023/07/16 06:42:29;;;;;;;4.87;2.60;;;;;;;21.60;64.94;96398.09;5001686;28;20207;-72
2023/07/16 06:44:54;;;;;;;12.53;2.87;;;;;;;21.38;64.68;96400.91;5026338;28;20492;-72
2023/07/16 06:47:20;;;;;;;11.30;2.90;;;;;;;21.61;64.37;96402.44;5025933;28;20183;-71
2023/07/16 06:49:45;;;;;;;11.20;2.50;;;;;;;21.58;63.61;96400.03;5025318;28;20186;-71
2023/07/16 06:52:27;;;;;;;9.60;2.40;;;;;;;21.50;63.55;96391.88;5021480;28;20178;-71
2023/07/16 06:54:55;;;;;;;3.67;2.10;;;;;;;21.48;63.39;96396.50;5018163;28;20588;-70
2023/07/16 06:57:22;;;;;;;5.00;2.33;;;;;;;21.38;63.80;96388.41;5024986;28;20418;-71
2023/07/16 06:59:47;;;;;;;18.43;4.10;;;;;;;21.19;64.30;96391.84;5025101;28;20521;-71
2023/07/16 07:02:13;;;;;;;57.37;6.43;;;;;;;21.24;64.41;96402.13;5025009;28;20620;-71
2023/07/16 07:04:38;;;;;;;12.07;3.07;;;;;;;21.20;64.55;96404.19;5025074;28;20183;-71
2023/07/16 07:07:04;;;;;;;20.87;3.90;;;;;;;21.22;64.86;96401.41;5027958;28;20175;-71
2023/07/16 07:09:30;;;;;;;10.40;3.53;;;;;;;21.27;65.05;96394.69;5028448;28;20754;-71
2023/07/16 07:11:55;;;;;;;23.17;3.70;;;;;;;21.34;64.22;96384.31;5029162;28;20188;-73
2023/07/16 07:14:20;;;;;;;12.50;3.30;;;;;;;21.23;64.33;96387.91;5029379;28;20171;-71
2023/07/16 07:16:46;;;;;;;6.33;2.60;;;;;;;21.17;65.13;96367.13;5009249;28;20204;-71
2023/07/16 07:19:11;;;;;;;18.67;3.50;;;;;;;21.69;63.70;96359.88;5026267;28;20179;-71
2023/07/16 07:21:36;;;;;;;5.27;2.47;;;;;;;21.68;63.56;96384.03;5025306;28;20176;-72
2023/07/16 07:24:02;;;;;;;3.80;2.20;;;;;;;21.52;63.78;96382.75;5029291;28;20357;-72
2023/07/16 07:26:27;;;;;;;6.87;2.47;;;;;;;21.53;63.94;96373.75;5029465;28;20194;-70
2023/07/16 07:28:53;;;;;;;15.07;4.50;;;;;;;21.56;63.94;96377.97;5026669;28;20175;-71
2023/07/16 07:31:18;;;;;;;11.63;2.33;;;;;;;21.44;63.94;96379.88;5021899;28;20966;-72
2023/07/16 07:33:43;;;;;;;9.43;2.50;;;;;;;21.44;64.47;96379.03;5030208;28;20278;-73
2023/07/16 07:36:09;;;;;;;5.60;2.87;;;;;;;21.50;64.70;96378.53;5030035;28;20211;-72
2023/07/16 07:38:34;;;;;;;9.53;2.63;;;;;;;21.53;63.67;96357.72;5029668;28;20304;-71
2023/07/16 07:41:00;;;;;;;8.80;2.80;;;;;;;21.44;63.80;96376.38;5030511;28;20191;-71
2023/07/16 07:43:27;;;;;;;8.40;2.60;;;;;;;21.42;63.90;96378.34;5030464;28;20750;-71
2023/07/16 07:45:52;;;;;;;14.53;3.13;;;;;;;21.38;64.36;96391.09;5029910;28;20217;-72
2023/07/16 07:48:18;;;;;;;13.60;3.67;;;;;;;21.70;63.38;96384.75;5029453;28;20418;-71
2023/07/16 07:50:43;;;;;;;19.93;3.90;;;;;;;21.74;63.13;96379.00;5028381;28;20504;-72
2023/07/16 07:53:08;;;;;;;21.20;4.00;;;;;;;22.34;61.95;96373.59;5028951;28;20632;-72
2023/07/16 07:55:37;;;;;;;29.63;4.70;;;;;;;23.08;59.55;96376.63;5028402;28;20225;-71
2023/07/16 07:58:02;;;;;;;13.03;3.53;;;;;;;22.84;59.86;96380.59;5029828;28;20175;-71
2023/07/16 08:00:28;;;;;;;12.20;3.50;;;;;;;23.33;58.79;96378.66;5029260;28;20426;-71
2023/07/16 08:02:53;;;;;;;12.43;3.20;;;;;;;23.68;58.05;96382.47;5028557;28;20201;-71
2023/07/16 08:05:18;;;;;;;33.00;5.00;;;;;;;23.33;58.10;96370.63;5028443;28;20207;-71
2023/07/16 08:07:44;;;;;;;15.83;3.40;;;;;;;23.58;56.77;96379.84;5027906;28;20261;-71
2023/07/16 08:10:09;;;;;;;11.73;3.27;;;;;;;23.86;56.41;96380.69;5027988;28;20198;-71
2023/07/16 08:12:35;;;;;;;6.00;2.90;;;;;;;24.32;54.82;96382.50;5028464;28;20243;-72
2023/07/16 08:15:00;;;;;;;14.43;3.00;;;;;;;24.31;55.82;96384.34;5027787;28;20178;-71
2023/07/16 08:17:26;;;;;;;10.60;2.67;;;;;;;24.30;53.75;96390.69;5028027;28;20183;-71
2023/07/16 08:19:51;;;;;;;21.00;3.67;;;;;;;24.04;54.33;96391.44;5028316;28;20664;-71
2023/07/16 08:22:17;;;;;;;12.83;3.67;;;;;;;24.05;54.50;96394.97;5030104;28;20311;-71
2023/07/16 08:24:42;;;;;;;8.03;3.30;;;;;;;24.01;54.95;96396.28;5027658;28;20175;-73
2023/07/16 08:27:08;;;;;;;15.30;4.60;;;;;;;23.86;54.82;96402.13;5026327;28;20175;-72
2023/07/16 08:29:36;;;;;;;6.17;2.63;;;;;;;24.01;53.06;96397.09;5028421;28;20282;-70
2023/07/16 08:32:01;;;;;;;10.20;2.13;;;;;;;24.17;52.07;96388.41;5028771;28;20269;-73
2023/07/16 08:34:27;;;;;;;7.50;2.47;;;;;;;24.35;50.80;96391.06;5027540;28;21161;-73
2023/07/16 08:36:52;;;;;;;33.30;6.03;;;;;;;24.60;50.46;96383.28;5027657;28;20203;-71
2023/07/16 08:39:19;;;;;;;20.00;3.90;;;;;;;25.06;50.70;96382.13;5028631;28;20205;-71
2023/07/16 08:41:44;;;;;;;11.17;2.43;;;;;;;24.96;50.57;96388.59;5029766;28;20195;-71
2023/07/16 08:44:11;;;;;;;5.80;2.10;;;;;;;25.05;49.57;96385.81;5028922;28;20442;-71
2023/07/16 08:46:37;;;;;;;12.70;2.90;;;;;;;24.96;50.43;96381.38;5028824;28;20251;-74
2023/07/16 08:49:04;;;;;;;13.20;3.33;;;;;;;25.32;49.91;96383.97;5028419;28;20426;-72
2023/07/16 08:51:30;;;;;;;12.10;3.17;;;;;;;25.45;48.69;96376.34;5028176;28;20183;-71
2023/07/16 08:53:55;;;;;;;19.13;3.37;;;;;;;25.31;48.10;96379.63;5027825;28;20438;-70
2023/07/16 08:56:21;;;;;;;10.70;3.40;;;;;;;25.66;47.20;96369.72;5027837;28;20196;-72
2023/07/16 08:58:47;;;;;;;13.17;3.67;;;;;;;25.85;46.35;96366.75;5027395;28;20207;-72
2023/07/16 09:01:13;;;;;;;12.50;3.03;;;;;;;25.78;47.10;96373.78;5022474;28;20265;-70
2023/07/16 09:03:38;;;;;;;20.57;4.70;;;;;;;25.96;46.79;96374.56;5008343;28;21017;-71
2023/07/16 09:06:04;;;;;;;7.00;3.67;;;;;;;26.16;46.41;96363.50;5016297;28;20471;-71
2023/07/16 09:08:29;;;;;;;3.60;3.03;;;;;;;26.17;46.03;96365.19;5027393;28;20172;-72
2023/07/16 09:10:56;;;;;;;4.03;3.60;;;;;;;26.24;45.53;96371.56;5027579;28;20171;-72
2023/07/16 09:13:26;;;;;;;5.27;3.57;;;;;;;26.13;45.91;96374.59;5027639;28;20191;-73
2023/07/16 09:15:53;;;;;;;58.63;8.10;;;;;;;25.86;45.77;96375.66;5021040;28;20457;-72
2023/07/16 09:18:22;;;;;;;21.03;4.50;;;;;;;25.59;46.84;96366.84;5024289;28;20425;-71
2023/07/16 09:20:54;;;;;;;13.80;5.50;;;;;;;25.42;48.30;96371.28;5024299;28;20576;-73
2023/07/16 09:23:19;;;;;;;5.53;4.53;;;;;;;25.59;47.97;96371.38;5025288;28;20935;-72
2023/07/16 09:25:44;;;;;;;5.10;3.60;;;;;;;25.37;47.95;96362.00;5026660;28;20521;-71
2023/07/16 09:28:10;;;;;;;3.40;3.03;;;;;;;25.62;47.27;96361.13;5026355;28;20668;-73
2023/07/16 09:30:35;;;;;;;22.60;4.23;;;;;;;26.11;45.35;96355.09;5026435;28;20199;-71
2023/07/16 09:33:18;;;;;;;16.97;3.70;;;;;;;25.91;45.31;96368.81;5026567;28;20551;-71
2023/07/16 09:35:44;;;;;;;16.70;4.07;;;;;;;25.76;46.79;96363.19;5026204;28;20191;-70
2023/07/16 09:38:10;;;;;;;10.23;4.27;;;;;;;25.88;45.22;96366.44;5025554;28;20804;-72
2023/07/16 09:40:42;;;;;;;10.63;3.20;;;;;;;25.75;45.56;96366.06;5006557;28;20815;-70
2023/07/16 09:43:08;;;;;;;9.10;2.80;;;;;;;25.35;46.23;96365.72;5026455;28;20463;-72
2023/07/16 09:45:34;;;;;;;3.03;2.30;;;;;;;25.14;46.88;96365.22;5029162;28;20766;-71
2023/07/16 09:48:01;;;;;;;7.10;2.83;;;;;;;25.02;47.04;96358.44;5026065;28;20282;-71
2023/07/16 09:50:32;;;;;;;5.33;2.83;;;;;;;25.53;45.92;96370.16;5023696;28;20801;-72
2023/07/16 09:52:57;;;;;;;2.80;2.50;;;;;;;26.10;43.54;96374.91;5026045;28;20519;-71
2023/07/16 09:55:24;;;;;;;5.63;2.70;;;;;;;26.28;42.96;96382.84;5025655;28;20450;-72
2023/07/16 09:57:54;;;;;;;13.43;2.83;;;;;;;26.02;43.69;96375.75;5024224;28;20183;-73
2023/07/16 10:00:22;;;;;;;2.97;2.13;;;;;;;25.14;45.69;96374.13;5023983;28;20430;-71
2023/07/16 10:02:48;;;;;;;12.20;2.83;;;;;;;25.19;45.53;96380.91;5023011;28;20495;-71
2023/07/16 10:05:26;;;;;;;4.73;2.87;;;;;;;25.20;46.54;96382.56;5019004;28;20445;-71
2023/07/16 10:07:53;;;;;;;13.30;2.33;;;;;;;25.27;46.00;96375.56;5022599;28;20203;-70
2023/07/16 10:10:19;;;;;;;4.97;2.40;;;;;;;25.07;44.00;96381.13;5023317;28;20817;-73
2023/07/16 10:13:00;;;;;;;5.20;2.33;;;;;;;24.91;44.76;96386.38;5026226;28;20882;-72
2023/07/16 10:15:28;;;;;;;17.03;3.87;;;;;;;25.01;44.76;96389.81;5026137;28;20520;-71
2023/07/16 10:17:56;;;;;;;11.73;2.93;;;;;;;25.02;43.60;96382.63;5025871;28;20414;-73
2023/07/16 10:20:33;;;;;;;14.53;3.43;;;;;;;24.97;43.75;96388.44;5025415;28;20425;-72
2023/07/16 10:23:09;;;;;;;11.43;2.93;;;;;;;25.01;44.10;96387.13;5024978;28;21057;-73
2023/07/16 10:25:34;;;;;;;8.37;3.13;;;;;;;24.98;44.52;96386.59;5023723;28;20496;-71
2023/07/16 10:28:00;;;;;;;9.53;3.07;;;;;;;24.95;45.11;96382.41;5025494;28;20524;-72
2023/07/16 10:30:25;;;;;;;3.93;2.50;;;;;;;25.06;44.67;96382.13;5022275;28;20198;-72
2023/07/16 10:32:52;;;;;;;9.13;3.10;;;;;;;25.21;43.95;96373.53;5021178;28;20198;-72
2023/07/16 10:35:18;;;;;;;2.27;1.70;;;;;;;25.29;43.45;96385.16;5025176;28;20199;-73
2023/07/16 10:37:43;;;;;;;6.23;2.57;;;;;;;24.44;45.90;96382.09;5024693;28;20511;-72
2023/07/16 10:40:13;;;;;;;3.90;2.17;;;;;;;24.33;46.49;96371.63;5026462;28;20261;-73
2023/07/16 10:42:46;;;;;;;5.47;2.20;;;;;;;24.97;45.63;96360.75;5030704;28;20637;-72
2023/07/16 10:45:12;;;;;;;6.00;3.00;;;;;;;25.29;43.48;96360.13;5028209;28;20799;-73
2023/07/16 10:47:40;;;;;;;5.73;2.47;;;;;;;25.45;43.19;96357.53;5028573;28;20484;-72
2023/07/16 10:50:09;;;;;;;4.70;2.57;;;;;;;25.56;42.31;96351.88;5013661;28;20199;-73
2023/07/16 10:52:35;;;;;;;4.03;1.90;;;;;;;25.54;43.76;96351.19;5031918;28;20738;-73
2023/07/16 10:55:02;;;;;;;18.57;3.80;;;;;;;25.13;44.58;96352.78;5032314;28;20413;-72
2023/07/16 10:57:28;;;;;;;9.53;2.97;;;;;;;24.83;45.61;96354.97;5014138;28;20426;-71
2023/07/16 10:59:55;;;;;;;10.97;3.10;;;;;;;25.11;45.23;96360.16;5030302;28;20434;-72
2023/07/16 11:02:22;;;;;;;7.37;2.60;;;;;;;25.15;45.06;96354.31;5030721;28;20460;-73
2023/07/16 11:04:49;;;;;;;9.30;2.50;;;;;;;25.30;44.51;96356.44;5031590;28;20418;-72
2023/07/16 11:07:15;;;;;;;3.93;2.30;;;;;;;25.12;44.42;96343.91;5031464;28;20409;-73
2023/07/16 11:10:02;;;;;;;7.93;2.50;;;;;;;24.62;45.08;96351.78;5031197;28;20430;-72
2023/07/16 11:12:28;;;;;;;5.23;2.40;;;;;;;24.47;45.95;96348.78;5031410;28;20942;-73
2023/07/16 11:14:54;;;;;;;3.60;2.27;;;;;;;24.33;46.46;96362.72;5031604;28;20433;-72
2023/07/16 11:17:27;;;;;;;10.00;2.47;;;;;;;24.42;46.46;96357.28;5024912;28;20225;-73
2023/07/16 11:19:54;;;;;;;5.83;2.63;;;;;;;24.51;45.83;96368.97;5026080;28;20437;-72
2023/07/16 11:22:25;;;;;;;4.83;2.70;;;;;;;24.45;46.11;96367.72;5030641;28;20460;-72
2023/07/16 11:24:51;;;;;;;6.70;2.50;;;;;;;24.87;44.26;96369.72;5028164;28;21265;-72
2023/07/16 11:27:18;;;;;;;6.40;2.73;;;;;;;24.99;43.84;96369.47;5030961;28;20517;-72